Terminal Aerodrome Forecast
Issued by NWS

Home | Current Version | Previous Version | Text Only | Print | Product List | Glossary On
Versions: 1 2 3 4 5 6 7 8 9 10 11 12 13 14 15 16
000
FTUS45 KTWC 280520
TAFOLS
TAF
KOLS 280520Z 2806/2906 17008KT P6SM -SHRA SCT070 BKN120
      TEMPO 2806/2807 VRB15G30KT 5SM -TSRA SCT060 BKN090CB
     FM280900 VRB04KT P6SM SCT080 BKN140
     FM281800 33008KT P6SM VCSH SCT070 BKN100
     FM290200 VRB04KT P6SM SCT080 BKN120=

USA.gov is the U.S. government's official web portal to all federal, state and local government web resources and services.